Time;durP1;ratioP1;P1;durP2;ratioP2;P2;SDS_P1;SDS_P2;PMS_P1;PMS_P2;Temp;Humidity;BMP_temperature;BMP_pressure;BME280_temperature;BME280_humidity;BME280_pressure;Samples;Min_cycle;Max_cycle;Signal;HPM_P1;HPM_P2
2022/05/08 00:02:19;;;;;;;22.52;18.55;;;14.50;99.90;;;;;;5052196;28;20236;-49
2022/05/08 00:04:51;;;;;;;23.45;19.02;;;14.50;99.90;;;;;;5050695;28;20219;-49
2022/05/08 00:07:17;;;;;;;22.67;18.40;;;14.40;99.90;;;;;;5052284;28;20198;-49
2022/05/08 00:09:44;;;;;;;22.48;17.77;;;14.40;99.90;;;;;;5051900;28;20173;-49
2022/05/08 00:12:13;;;;;;;24.33;18.85;;;14.40;99.90;;;;;;5052201;28;20167;-48
2022/05/08 00:14:40;;;;;;;24.00;18.10;;;14.40;99.90;;;;;;5052175;28;20171;-48
2022/05/08 00:17:06;;;;;;;24.40;18.10;;;14.50;99.90;;;;;;5051165;28;20214;-49
2022/05/08 00:19:32;;;;;;;20.42;17.77;;;14.40;99.90;;;;;;5051786;28;20182;-47
2022/05/08 00:21:57;;;;;;;24.40;19.48;;;14.30;99.90;;;;;;5052087;28;20644;-49
2022/05/08 00:24:23;;;;;;;25.20;19.40;;;14.30;99.90;;;;;;5051733;28;20167;-48
2022/05/08 00:26:49;;;;;;;21.00;17.67;;;14.30;99.90;;;;;;5051930;28;20202;-47
2022/05/08 00:29:15;;;;;;;20.25;17.85;;;14.30;99.90;;;;;;5051604;28;20644;-46
2022/05/08 00:31:44;;;;;;;21.88;17.95;;;14.20;99.90;;;;;;5052175;28;20185;-47
2022/05/08 00:34:09;;;;;;;24.75;18.73;;;14.20;99.90;;;;;;5051658;28;20170;-47
2022/05/08 00:36:35;;;;;;;24.50;18.30;;;14.20;99.90;;;;;;5052176;28;20532;-47
2022/05/08 00:39:00;;;;;;;22.10;17.98;;;14.10;99.90;;;;;;5051475;28;20586;-47
2022/05/08 00:41:26;;;;;;;22.15;17.85;;;14.10;99.90;;;;;;5051799;28;20515;-47
2022/05/08 00:43:52;;;;;;;25.30;18.65;;;14.10;99.90;;;;;;5051547;28;20202;-47
2022/05/08 00:46:17;;;;;;;25.58;18.23;;;14.10;99.90;;;;;;5051715;28;20293;-49
2022/05/08 00:48:43;;;;;;;24.55;19.23;;;14.10;99.90;;;;;;5050317;28;20228;-48
2022/05/08 00:51:11;;;;;;;27.92;20.73;;;14.10;99.90;;;;;;5051763;28;20598;-48
2022/05/08 00:53:49;;;;;;;26.98;20.40;;;14.10;99.90;;;;;;5051759;28;20174;-47
2022/05/08 00:56:15;;;;;;;25.80;20.45;;;14.10;99.90;;;;;;5055945;28;20227;-47
2022/05/08 00:58:42;;;;;;;24.40;19.60;;;14.10;99.90;;;;;;5055713;28;20523;-46
2022/05/08 01:01:11;;;;;;;26.90;20.60;;;14.10;99.90;;;;;;5056305;28;20206;-47
2022/05/08 01:03:38;;;;;;;25.27;21.17;;;14.20;99.90;;;;;;5055176;28;20206;-48
2022/05/08 01:06:08;;;;;;;25.85;21.33;;;14.20;99.90;;;;;;5035869;28;20203;-46
2022/05/08 01:08:36;;;;;;;26.23;20.80;;;14.20;99.90;;;;;;5046393;28;20178;-48
2022/05/08 01:11:03;;;;;;;28.10;19.75;;;14.30;99.90;;;;;;5055500;28;20159;-49
2022/05/08 01:13:28;;;;;;;25.48;20.77;;;14.40;99.90;;;;;;5055174;28;20235;-49
2022/05/08 01:15:57;;;;;;;23.60;21.00;;;14.30;99.90;;;;;;5055425;28;20179;-49
2022/05/08 01:18:22;;;;;;;30.23;21.08;;;14.40;99.90;;;;;;5055061;28;20174;-48
2022/05/08 01:20:48;;;;;;;25.23;20.92;;;14.50;99.90;;;;;;5055353;28;20256;-47
2022/05/08 01:23:15;;;;;;;29.33;20.23;;;14.50;99.90;;;;;;5055227;28;20170;-46
2022/05/08 01:25:54;;;;;;;25.55;21.20;;;14.50;99.90;;;;;;5055107;28;20628;-48
2022/05/08 01:28:21;;;;;;;28.60;21.75;;;14.50;99.90;;;;;;5054910;28;20174;-48
2022/05/08 01:30:49;;;;;;;29.55;21.52;;;14.50;99.90;;;;;;5055427;28;20171;-48
2022/05/08 01:33:16;;;;;;;25.52;21.48;;;14.60;99.90;;;;;;5054947;28;20202;-47
2022/05/08 01:35:42;;;;;;;28.60;21.80;;;14.60;99.90;;;;;;5055095;28;20170;-47
2022/05/08 01:38:09;;;;;;;30.15;22.52;;;14.60;99.90;;;;;;5055277;28;20258;-49
2022/05/08 01:40:35;;;;;;;26.67;21.45;;;14.60;99.90;;;;;;5055486;28;20178;-49
2022/05/08 01:43:02;;;;;;;27.17;22.30;;;14.60;99.90;;;;;;5054700;28;20225;-47
2022/05/08 01:45:28;;;;;;;30.08;22.70;;;14.60;99.90;;;;;;5055062;28;20578;-47
2022/05/08 01:50:38;;;;;;;22.50;18.52;;;14.60;99.90;;;;;;5055058;28;20213;-47
2022/05/08 01:53:04;;;;;;;25.13;19.83;;;15.30;99.90;;;;;;5054831;28;20173;-47
2022/05/08 01:55:30;;;;;;;27.67;21.25;;;14.50;99.90;;;;;;5054705;28;20248;-48
2022/05/08 01:57:55;;;;;;;24.55;20.52;;;14.50;99.90;;;;;;5053117;28;20205;-47
2022/05/08 02:00:22;;;;;;;24.50;19.45;;;14.60;99.90;;;;;;5054612;28;20174;-47
2022/05/08 02:02:49;;;;;;;27.40;19.85;;;14.50;99.90;;;;;;5054225;28;20683;-49
2022/05/08 02:05:19;;;;;;;26.20;19.75;;;14.50;99.90;;;;;;5054448;28;20514;-47
2022/05/08 02:07:46;;;;;;;20.98;16.95;;;14.50;99.90;;;;;;5054439;28;20182;-48
2022/05/08 02:10:13;;;;;;;22.77;18.27;;;14.40;99.90;;;;;;5054710;28;20498;-48
2022/05/08 02:12:39;;;;;;;22.08;17.30;;;14.40;99.90;;;;;;5054115;28;20645;-48
2022/05/08 02:15:09;;;;;;;25.33;17.45;;;14.40;99.90;;;;;;5054605;28;20217;-49
2022/05/08 02:17:35;;;;;;;19.98;16.52;;;14.40;99.90;;;;;;5054232;28;20170;-49
2022/05/08 02:20:02;;;;;;;23.85;16.65;;;14.40;99.90;;;;;;5054257;28;20558;-49
2022/05/08 02:22:27;;;;;;;16.80;13.57;;;14.30;99.90;;;;;;5054361;28;20167;-48
2022/05/08 02:24:53;;;;;;;18.65;13.25;;;14.30;99.90;;;;;;5053833;28;20197;-49
2022/05/08 02:27:18;;;;;;;21.50;15.18;;;14.20;99.90;;;;;;5054294;28;20202;-47
2022/05/08 02:29:51;;;;;;;19.63;14.35;;;14.20;99.90;;;;;;5053774;28;20607;-48
2022/05/08 02:32:18;;;;;;;20.35;15.43;;;14.20;99.90;;;;;;5053768;28;20195;-46
2022/05/08 02:34:45;;;;;;;18.25;13.43;;;14.20;99.90;;;;;;5053875;28;20166;-47
2022/05/08 02:37:10;;;;;;;14.52;11.98;;;14.10;99.90;;;;;;5053981;28;20163;-48
2022/05/08 02:39:37;;;;;;;14.82;11.10;;;14.10;99.90;;;;;;5053847;28;20663;-47
2022/05/08 02:42:03;;;;;;;13.02;9.07;;;14.00;99.90;;;;;;5053803;28;20163;-49
2022/05/08 02:44:28;;;;;;;12.48;9.13;;;13.90;99.90;;;;;;5053559;28;20175;-47
2022/05/08 02:46:54;;;;;;;11.38;7.72;;;13.90;99.90;;;;;;5053619;28;20206;-46
2022/05/08 02:49:20;;;;;;;12.13;6.75;;;13.90;99.90;;;;;;5052263;28;20185;-47
2022/05/08 02:51:45;;;;;;;11.98;7.22;;;13.80;99.90;;;;;;5053411;28;20175;-47
2022/05/08 02:54:11;;;;;;;10.85;6.60;;;13.80;99.90;;;;;;5053379;28;20186;-48
2022/05/08 02:59:20;;;;;;;9.02;6.60;;;13.70;99.90;;;;;;5053563;28;20209;-47
2022/05/08 03:01:46;;;;;;;8.45;6.13;;;13.60;99.90;;;;;;5053289;28;20179;-48
2022/05/08 03:04:11;;;;;;;9.02;7.00;;;13.70;99.90;;;;;;5053179;28;20289;-47
2022/05/08 03:06:38;;;;;;;10.13;6.95;;;13.70;99.90;;;;;;5053282;28;20214;-49
2022/05/08 03:09:04;;;;;;;9.43;6.70;;;13.70;99.90;;;;;;5053861;28;20213;-49
2022/05/08 03:11:29;;;;;;;8.15;6.53;;;13.70;99.90;;;;;;5052845;28;20174;-47
2022/05/08 03:13:57;;;;;;;10.15;7.07;;;13.60;99.90;;;;;;5053476;28;20521;-50
2022/05/08 03:16:22;;;;;;;9.75;6.95;;;13.70;99.90;;;;;;5051026;28;20269;-47
2022/05/08 03:18:49;;;;;;;10.68;7.47;;;13.70;99.90;;;;;;5052804;28;20210;-49
2022/05/08 03:21:15;;;;;;;9.68;7.55;;;13.70;99.90;;;;;;5052637;28;20221;-48
2022/05/08 03:23:42;;;;;;;11.32;7.72;;;13.70;99.90;;;;;;5052896;28;20173;-48
2022/05/08 03:26:08;;;;;;;14.45;7.90;;;13.70;99.90;;;;;;5053461;28;20218;-48
2022/05/08 03:28:35;;;;;;;12.07;8.15;;;13.60;99.90;;;;;;5052616;28;20220;-46
2022/05/08 03:31:04;;;;;;;10.30;8.07;;;13.60;99.90;;;;;;5052708;28;20178;-50
2022/05/08 03:33:30;;;;;;;9.55;8.40;;;13.60;99.90;;;;;;5052603;28;20246;-49
2022/05/08 03:35:56;;;;;;;11.45;7.97;;;13.60;99.90;;;;;;5052741;28;20601;-49
2022/05/08 03:38:21;;;;;;;12.63;8.05;;;13.50;99.90;;;;;;5052503;28;20254;-48
2022/05/08 03:40:47;;;;;;;16.17;8.93;;;13.50;99.90;;;;;;5051267;28;20204;-46
2022/05/08 03:43:13;;;;;;;12.65;8.20;;;13.40;99.90;;;;;;5052578;28;20231;-48
2022/05/08 03:45:39;;;;;;;13.23;8.57;;;13.40;99.90;;;;;;5052557;28;20186;-47
2022/05/08 03:48:05;;;;;;;9.57;7.72;;;13.40;99.90;;;;;;5052062;28;20171;-50
2022/05/08 03:50:30;;;;;;;9.82;7.40;;;13.40;99.90;;;;;;5052237;28;20167;-47
2022/05/08 03:52:57;;;;;;;11.05;7.75;;;13.30;99.90;;;;;;5052818;28;20261;-47
2022/05/08 03:55:23;;;;;;;18.20;8.50;;;13.30;99.90;;;;;;5052135;28;20241;-47
2022/05/08 03:57:48;;;;;;;11.25;7.90;;;13.30;99.90;;;;;;5052466;28;20216;-50
2022/05/08 04:00:15;;;;;;;15.18;9.00;;;13.30;99.90;;;;;;5052127;28;20179;-50
2022/05/08 04:02:41;;;;;;;11.02;7.93;;;13.20;99.90;;;;;;5052192;28;20590;-50
2022/05/08 04:05:08;;;;;;;11.18;8.57;;;13.20;99.90;;;;;;5052186;28;20186;-50
2022/05/08 04:07:34;;;;;;;18.00;8.38;;;13.20;99.90;;;;;;5052437;28;20694;-49
2022/05/08 04:09:59;;;;;;;12.63;8.52;;;13.20;99.90;;;;;;5050673;28;20265;-50
2022/05/08 04:12:26;;;;;;;14.85;10.15;;;13.20;99.90;;;;;;5051931;28;20549;-47
2022/05/08 04:14:52;;;;;;;13.50;9.52;;;13.20;99.90;;;;;;5050450;28;20659;-47
2022/05/08 04:17:18;;;;;;;13.65;9.63;;;13.10;99.90;;;;;;5050635;28;20699;-47
2022/05/08 04:19:44;;;;;;;13.75;9.35;;;13.10;99.90;;;;;;5051761;28;20177;-49
2022/05/08 04:24:53;;;;;;;16.33;9.77;;;13.00;99.90;;;;;;5051967;28;20201;-48
2022/05/08 04:27:19;;;;;;;16.17;10.15;;;13.00;99.90;;;;;;5051945;28;20202;-47
2022/05/08 04:29:45;;;;;;;16.35;9.68;;;13.00;99.90;;;;;;5051705;28;20171;-47
2022/05/08 04:32:11;;;;;;;15.55;10.15;;;13.00;99.90;;;;;;5051711;28;20273;-48
2022/05/08 04:34:36;;;;;;;13.43;10.15;;;13.00;99.90;;;;;;5052263;28;20250;-48
2022/05/08 04:37:03;;;;;;;12.85;10.13;;;13.10;99.90;;;;;;5051606;28;20221;-48
2022/05/08 04:39:28;;;;;;;13.95;10.20;;;13.00;99.90;;;;;;5051900;28;20167;-49
2022/05/08 04:41:54;;;;;;;12.88;9.88;;;13.00;99.90;;;;;;5051502;28;20175;-48
2022/05/08 04:44:19;;;;;;;14.07;10.15;;;13.00;99.90;;;;;;5051821;28;20648;-47
2022/05/08 04:46:45;;;;;;;11.45;9.52;;;13.00;99.90;;;;;;5051514;28;20217;-49
2022/05/08 04:49:11;;;;;;;12.43;10.18;;;13.00;99.90;;;;;;5051499;28;20181;-49
2022/05/08 04:51:36;;;;;;;15.73;11.00;;;13.00;99.90;;;;;;5051948;28;20181;-49
2022/05/08 04:54:02;;;;;;;13.90;10.27;;;13.00;99.90;;;;;;5051702;28;20162;-47
2022/05/08 04:56:30;;;;;;;17.55;10.98;;;13.00;99.90;;;;;;5051228;28;20663;-50
2022/05/08 04:58:55;;;;;;;17.17;11.10;;;13.00;99.90;;;;;;5051753;28;20170;-50
2022/05/08 05:01:21;;;;;;;13.05;10.38;;;13.00;99.90;;;;;;5051358;28;20174;-50
2022/05/08 05:03:47;;;;;;;15.50;10.18;;;13.00;99.90;;;;;;5050715;28;20710;-50
2022/05/08 05:06:13;;;;;;;14.20;10.98;;;13.00;99.90;;;;;;5050524;28;20218;-47
2022/05/08 05:08:39;;;;;;;18.13;12.07;;;12.90;99.90;;;;;;5050535;28;20178;-48
2022/05/08 05:11:08;;;;;;;17.15;11.50;;;13.00;99.90;;;;;;5049004;28;20217;-47
2022/05/08 05:13:34;;;;;;;17.42;12.35;;;13.00;99.90;;;;;;5051287;28;20257;-47
2022/05/08 05:16:00;;;;;;;15.23;11.75;;;13.10;99.90;;;;;;5050208;28;20198;-47
2022/05/08 05:18:26;;;;;;;16.67;12.50;;;13.10;99.90;;;;;;5049633;28;20214;-49
2022/05/08 05:20:52;;;;;;;20.05;12.98;;;13.10;99.90;;;;;;5050911;28;20167;-46
2022/05/08 05:23:17;;;;;;;23.52;12.73;;;13.10;99.90;;;;;;5050950;28;20170;-48
2022/05/08 05:25:43;;;;;;;18.02;12.52;;;13.00;99.90;;;;;;5051023;28;20268;-48
2022/05/08 05:28:08;;;;;;;18.42;12.77;;;13.10;99.90;;;;;;5050971;28;20555;-48
2022/05/08 05:30:34;;;;;;;21.80;13.25;;;13.10;99.90;;;;;;5051304;28;20698;-49
2022/05/08 05:32:59;;;;;;;17.48;13.95;;;13.10;99.90;;;;;;5050536;28;20654;-50
2022/05/08 05:35:25;;;;;;;16.95;12.57;;;13.10;99.90;;;;;;5051216;28;20589;-48
2022/05/08 05:37:50;;;;;;;21.58;12.98;;;13.10;99.90;;;;;;5051342;28;20175;-49
2022/05/08 05:40:16;;;;;;;15.88;12.10;;;13.10;99.90;;;;;;5052214;28;20163;-47
2022/05/08 05:42:41;;;;;;;19.50;11.98;;;13.10;99.90;;;;;;5054415;28;20174;-47
2022/05/08 05:45:07;;;;;;;21.05;12.50;;;13.10;99.90;;;;;;5053946;28;20205;-48
2022/05/08 05:47:52;;;;;;;17.90;11.70;;;13.10;99.90;;;;;;5054162;28;20206;-45
2022/05/08 05:50:22;;;;;;;18.33;12.02;;;13.10;99.90;;;;;;5054520;28;20171;-46
2022/05/08 05:52:50;;;;;;;18.52;11.00;;;13.00;99.90;;;;;;5054606;28;20257;-45
2022/05/08 05:55:16;;;;;;;17.63;12.15;;;13.00;99.90;;;;;;5054511;28;20171;-45
2022/05/08 05:57:42;;;;;;;15.40;11.15;;;13.10;99.90;;;;;;5052816;28;20218;-49
2022/05/08 06:00:10;;;;;;;16.38;11.23;;;13.10;99.90;;;;;;5054654;28;20182;-48
2022/05/08 06:02:37;;;;;;;17.92;10.93;;;13.10;99.90;;;;;;5054134;28;20225;-48
2022/05/08 06:05:04;;;;;;;16.35;11.02;;;13.00;99.90;;;;;;5053963;28;20181;-44
2022/05/08 06:07:29;;;;;;;16.38;12.52;;;13.10;99.90;;;;;;5052678;28;20222;-46
2022/05/08 06:09:55;;;;;;;16.55;10.65;;;13.20;99.90;;;;;;5054042;28;20532;-48
2022/05/08 06:12:20;;;;;;;14.93;9.35;;;13.20;99.90;;;;;;5052698;28;20406;-45
2022/05/08 06:14:47;;;;;;;17.08;8.35;;;13.10;99.90;;;;;;5054146;28;20253;-46
2022/05/08 06:17:13;;;;;;;12.65;8.50;;;13.10;99.90;;;;;;5054157;28;20166;-46
2022/05/08 06:19:39;;;;;;;12.60;8.00;;;13.00;99.90;;;;;;5054114;28;20167;-48
2022/05/08 06:22:04;;;;;;;12.65;7.95;;;13.10;99.90;;;;;;5053959;28;20309;-46
2022/05/08 06:24:30;;;;;;;13.25;8.35;;;13.20;99.90;;;;;;5053679;28;20198;-46
2022/05/08 06:26:56;;;;;;;14.32;8.82;;;13.30;99.90;;;;;;5053533;28;20210;-47
2022/05/08 06:29:22;;;;;;;14.23;7.90;;;13.30;99.90;;;;;;5053138;28;20171;-46
2022/05/08 06:31:50;;;;;;;14.70;8.95;;;13.60;99.90;;;;;;5053106;28;20583;-50
2022/05/08 06:34:16;;;;;;;16.15;9.13;;;13.60;99.90;;;;;;5053333;28;20186;-51
2022/05/08 06:36:42;;;;;;;16.10;9.02;;;13.90;99.90;;;;;;5052988;28;20660;-47
2022/05/08 06:39:07;;;;;;;15.88;9.23;;;13.90;99.90;;;;;;5053107;28;20246;-48
2022/05/08 06:41:33;;;;;;;18.35;10.75;;;13.90;99.90;;;;;;5054017;28;20167;-50
2022/05/08 06:43:59;;;;;;;20.17;12.02;;;14.00;99.90;;;;;;5053689;28;20221;-46
2022/05/08 06:46:25;;;;;;;20.52;12.18;;;14.20;99.90;;;;;;5053290;28;20210;-49
2022/05/08 06:48:50;;;;;;;17.90;12.13;;;14.10;99.90;;;;;;5053640;28;20312;-49
2022/05/08 06:51:16;;;;;;;19.27;12.63;;;14.10;99.90;;;;;;5053063;28;20232;-48
2022/05/08 06:53:43;;;;;;;18.95;12.07;;;14.30;99.90;;;;;;5053192;28;20715;-47
2022/05/08 06:56:13;;;;;;;15.93;10.80;;;14.30;99.90;;;;;;5052245;28;20209;-48
2022/05/08 07:01:38;;;;;;;15.52;11.13;;;14.30;99.90;;;;;;5052864;28;20185;-48
2022/05/08 07:04:07;;;;;;;15.85;9.57;;;14.40;99.90;;;;;;5053859;28;20226;-45
2022/05/08 07:06:34;;;;;;;19.55;9.82;;;14.60;99.90;;;;;;5053468;28;20218;-45
2022/05/08 07:09:00;;;;;;;16.92;9.68;;;14.70;99.90;;;;;;5053489;28;20181;-47
2022/05/08 07:11:26;;;;;;;14.60;9.70;;;14.90;99.90;;;;;;5053314;28;20171;-45
2022/05/08 07:13:52;;;;;;;13.85;8.73;;;15.00;99.90;;;;;;5053332;28;20162;-47
2022/05/08 07:16:17;;;;;;;14.60;8.10;;;14.80;99.90;;;;;;5053319;28;20592;-45
2022/05/08 07:18:43;;;;;;;17.35;9.10;;;14.70;99.90;;;;;;5053662;28;20233;-46
2022/05/08 07:21:08;;;;;;;14.18;8.55;;;14.80;99.90;;;;;;5052831;28;20185;-47
2022/05/08 07:23:34;;;;;;;16.52;8.52;;;15.00;99.90;;;;;;5053264;28;20171;-48
2022/05/08 07:26:00;;;;;;;14.50;8.07;;;15.10;99.90;;;;;;5053045;28;20202;-46
2022/05/08 07:28:27;;;;;;;19.42;8.75;;;15.10;99.90;;;;;;5053128;28;20218;-45
2022/05/08 07:30:54;;;;;;;17.00;7.68;;;15.00;99.90;;;;;;5052773;28;20175;-49
2022/05/08 07:33:20;;;;;;;14.35;7.50;;;15.10;99.90;;;;;;5052356;28;20190;-48
2022/05/08 07:38:31;;;;;;;16.77;8.05;;;15.00;99.90;;;;;;5052958;28;20177;-48
2022/05/08 07:40:58;;;;;;;17.75;7.80;;;15.10;99.90;;;;;;5042999;28;20178;-47
2022/05/08 07:43:24;;;;;;;13.95;6.30;;;15.20;99.90;;;;;;5051524;28;20269;-47
2022/05/08 07:45:49;;;;;;;15.55;7.32;;;15.20;99.90;;;;;;5050314;28;20278;-47
2022/05/08 07:48:16;;;;;;;14.35;7.43;;;15.40;99.90;;;;;;5051516;28;20199;-47
2022/05/08 07:50:43;;;;;;;15.68;7.93;;;15.40;99.90;;;;;;5049253;28;20193;-48
2022/05/08 07:53:08;;;;;;;14.95;7.25;;;15.60;99.90;;;;;;5050872;28;20189;-48
2022/05/08 07:55:34;;;;;;;16.73;7.00;;;15.80;99.90;;;;;;5048866;28;20632;-47
2022/05/08 07:57:59;;;;;;;16.45;7.20;;;16.00;99.90;;;;;;5050884;28;20628;-47
2022/05/08 08:00:25;;;;;;;14.60;6.40;;;16.00;99.90;;;;;;5050401;28;20181;-47
2022/05/08 08:02:51;;;;;;;17.00;7.45;;;16.10;99.90;;;;;;5050344;28;20218;-47
2022/05/08 08:05:16;;;;;;;15.77;6.70;;;16.10;99.90;;;;;;5051162;28;20256;-47
2022/05/08 08:07:42;;;;;;;13.27;6.82;;;16.20;99.90;;;;;;5050444;28;20214;-47
2022/05/08 08:10:08;;;;;;;13.32;6.00;;;16.10;99.90;;;;;;5051302;28;20175;-46
2022/05/08 08:12:33;;;;;;;17.55;6.88;;;16.10;99.90;;;;;;5050889;28;20180;-45
2022/05/08 08:15:02;;;;;;;14.05;5.63;;;16.10;99.90;;;;;;5050892;28;20671;-46
2022/05/08 08:17:28;;;;;;;15.43;6.32;;;16.00;99.90;;;;;;5050533;28;20520;-47
2022/05/08 08:19:54;;;;;;;15.95;7.13;;;15.80;99.90;;;;;;5051006;28;20239;-47
2022/05/08 08:22:21;;;;;;;14.70;5.55;;;16.00;99.90;;;;;;5050957;28;20170;-47
2022/05/08 08:24:47;;;;;;;15.07;5.35;;;15.80;99.90;;;;;;5050093;28;20201;-48
2022/05/08 08:27:13;;;;;;;15.95;5.88;;;15.60;99.90;;;;;;5050692;28;20198;-48
2022/05/08 08:29:38;;;;;;;14.50;5.35;;;15.90;99.90;;;;;;5050281;28;20202;-47
2022/05/08 08:32:04;;;;;;;13.02;4.47;;;15.90;99.90;;;;;;5051111;28;20167;-47
2022/05/08 08:34:30;;;;;;;15.35;5.75;;;15.80;99.90;;;;;;5050662;28;20166;-47
2022/05/08 08:36:56;;;;;;;18.63;5.75;;;16.10;99.90;;;;;;5049164;28;20299;-49
2022/05/08 08:39:22;;;;;;;14.23;5.78;;;16.30;99.90;;;;;;5050701;28;20524;-48
2022/05/08 08:41:58;;;;;;;20.90;6.28;;;16.20;99.90;;;;;;5050091;28;20182;-47
2022/05/08 08:50:01;;;;;;;11.95;4.78;;;16.50;99.90;;;;;;5050607;28;20178;-48
2022/05/08 08:52:27;;;;;;;18.33;5.95;;;16.50;99.90;;;;;;5049918;28;20216;-48
2022/05/08 08:54:53;;;;;;;13.95;5.68;;;16.30;99.90;;;;;;5050391;28;20163;-47
2022/05/08 08:57:19;;;;;;;13.73;5.05;;;16.70;99.90;;;;;;5050553;28;20261;-47
2022/05/08 08:59:44;;;;;;;10.32;4.45;;;16.70;99.90;;;;;;5050195;28;20545;-46
2022/05/08 09:02:18;;;;;;;15.07;3.80;;;16.50;99.90;;;;;;5050022;28;20167;-46
2022/05/08 09:04:45;;;;;;;15.43;5.13;;;16.60;99.90;;;;;;5050035;28;20163;-49
2022/05/08 09:07:45;;;;;;;15.38;4.47;;;16.40;99.90;;;;;;5050227;28;20252;-49
2022/05/08 09:10:20;;;;;;;14.70;4.70;;;16.30;99.90;;;;;;5050358;28;20625;-50
2022/05/08 09:12:52;;;;;;;13.70;4.60;;;16.60;99.90;;;;;;5050075;28;20227;-47
2022/05/08 09:15:24;;;;;;;15.00;5.30;;;16.80;99.90;;;;;;5051558;28;20604;-46
2022/05/08 09:17:52;;;;;;;15.55;5.00;;;16.80;99.90;;;;;;5054069;28;20163;-45
2022/05/08 09:20:33;;;;;;;11.52;4.45;;;17.00;99.90;;;;;;5054280;28;20208;-49
2022/05/08 09:23:12;;;;;;;14.15;4.85;;;17.20;99.90;;;;;;5053926;28;20217;-47
2022/05/08 09:25:59;;;;;;;13.45;4.43;;;17.10;99.90;;;;;;5054166;28;20181;-45
2022/05/08 09:28:28;;;;;;;9.73;4.00;;;17.20;99.90;;;;;;5053828;28;20162;-46
2022/05/08 09:31:03;;;;;;;15.13;3.63;;;17.30;99.90;;;;;;5053933;28;20167;-47
2022/05/08 09:33:31;;;;;;;8.68;3.65;;;17.40;99.90;;;;;;5053602;28;20166;-46
2022/05/08 09:36:02;;;;;;;13.68;3.70;;;17.10;99.90;;;;;;5052933;28;20174;-48
2022/05/08 09:38:47;;;;;;;7.60;3.17;;;17.30;99.90;;;;;;5053104;28;20616;-49
2022/05/08 09:41:15;;;;;;;11.00;3.40;;;17.40;99.90;;;;;;5053501;28;20678;-47
2022/05/08 09:43:41;;;;;;;11.45;3.20;;;17.00;99.90;;;;;;5052615;28;20644;-49
2022/05/08 09:46:08;;;;;;;7.22;3.28;;;17.30;99.90;;;;;;5053775;28;20283;-48
2022/05/08 09:48:34;;;;;;;11.95;4.05;;;17.10;99.90;;;;;;5053697;28;20179;-49
2022/05/08 09:51:08;;;;;;;13.18;4.53;;;17.30;99.90;;;;;;5053145;28;20699;-50
2022/05/08 09:53:36;;;;;;;14.27;4.03;;;17.50;99.90;;;;;;5053492;28;20182;-46
2022/05/08 09:56:04;;;;;;;12.27;3.55;;;17.50;99.90;;;;;;5053527;28;20179;-45
2022/05/08 09:58:31;;;;;;;10.35;3.67;;;17.80;99.90;;;;;;5053070;28;20181;-48
2022/05/08 10:00:57;;;;;;;10.18;3.28;;;18.00;99.90;;;;;;5053605;28;20232;-46
2022/05/08 10:03:23;;;;;;;6.57;2.92;;;18.00;99.90;;;;;;5053102;28;20584;-46
2022/05/08 10:05:49;;;;;;;11.73;3.47;;;18.30;99.90;;;;;;5052525;28;20639;-45
2022/05/08 10:08:17;;;;;;;11.73;3.35;;;18.40;99.90;;;;;;5053213;28;20166;-46
2022/05/08 10:16:53;;;;;;;12.15;3.92;;;18.50;99.90;;;;;;5043734;28;20195;-45
2022/05/08 10:19:22;;;;;;;8.85;3.20;;;18.70;99.90;;;;;;5052984;28;20174;-46
2022/05/08 10:21:56;;;;;;;12.77;3.90;;;18.60;99.90;;;;;;5052724;28;20194;-46
2022/05/08 10:24:43;;;;;;;7.95;3.15;;;18.20;99.90;;;;;;5052954;28;20610;-47
2022/05/08 10:27:32;;;;;;;13.57;3.83;;;18.50;99.90;;;;;;5052732;28;20603;-46
2022/05/08 10:29:57;;;;;;;11.93;4.13;;;18.50;99.90;;;;;;5052896;28;20159;-45
2022/05/08 10:32:32;;;;;;;12.35;4.25;;;18.50;99.90;;;;;;5052711;28;20571;-47
2022/05/08 10:35:06;;;;;;;11.18;4.15;;;18.70;99.90;;;;;;5052825;28;20247;-46
2022/05/08 10:37:32;;;;;;;10.82;4.18;;;18.90;99.90;;;;;;5052320;28;20174;-47
2022/05/08 10:39:58;;;;;;;10.13;3.47;;;19.20;99.90;;;;;;5052658;28;20185;-46
2022/05/08 10:42:23;;;;;;;10.68;3.25;;;19.00;99.90;;;;;;5052519;28;20253;-47
2022/05/08 10:44:49;;;;;;;9.32;3.65;;;19.10;99.90;;;;;;5052255;28;20560;-46
2022/05/08 10:47:33;;;;;;;7.97;3.00;;;19.10;99.90;;;;;;5052286;28;20210;-46
2022/05/08 10:50:08;;;;;;;11.73;3.30;;;19.00;99.90;;;;;;5052228;28;20182;-47
2022/05/08 10:52:42;;;;;;;7.07;2.58;;;18.60;99.90;;;;;;5052285;28;20407;-48
2022/05/08 10:55:12;;;;;;;5.65;2.58;;;18.80;99.90;;;;;;5052775;28;20163;-48
2022/05/08 10:57:39;;;;;;;12.27;4.07;;;18.90;99.90;;;;;;5052214;28;20513;-47
2022/05/08 11:00:16;;;;;;;7.45;3.40;;;19.00;99.90;;;;;;5052677;28;20175;-48
2022/05/08 11:02:51;;;;;;;6.97;2.60;;;19.20;99.90;;;;;;5051645;28;20629;-45
2022/05/08 11:05:22;;;;;;;6.65;2.58;;;19.30;99.90;;;;;;5051023;28;20170;-46
2022/05/08 11:07:59;;;;;;;12.70;3.55;;;19.30;99.90;;;;;;5051779;28;20714;-47
2022/05/08 11:10:32;;;;;;;9.02;2.72;;;19.40;99.90;;;;;;5051840;28;20631;-47
2022/05/08 11:13:10;;;;;;;9.02;2.80;;;19.60;99.90;;;;;;5052307;28;20175;-47
2022/05/08 11:15:45;;;;;;;7.75;2.67;;;19.40;99.90;;;;;;5051891;28;20245;-47
2022/05/08 11:18:17;;;;;;;5.00;2.30;;;19.60;99.90;;;;;;5051912;28;20171;-45
2022/05/08 11:20:57;;;;;;;8.73;2.53;;;19.60;99.50;;;;;;5051470;28;20167;-47
2022/05/08 11:23:24;;;;;;;10.18;2.85;;;19.80;99.90;;;;;;5051948;28;20178;-45
2022/05/08 11:25:52;;;;;;;6.70;2.40;;;19.70;99.30;;;;;;5051675;28;20171;-48
2022/05/08 11:28:20;;;;;;;10.88;3.10;;;19.60;98.20;;;;;;5051879;28;20262;-49
2022/05/08 11:30:46;;;;;;;6.40;2.67;;;19.70;97.70;;;;;;5051547;28;20202;-47
2022/05/08 11:36:05;;;;;;;5.20;2.10;;;19.90;95.40;;;;;;5051878;28;20181;-47
2022/05/08 11:38:44;;;;;;;11.35;3.03;;;20.00;93.90;;;;;;5050575;28;20660;-48
2022/05/08 11:41:15;;;;;;;8.10;2.60;;;20.10;93.10;;;;;;5051174;28;20249;-48
2022/05/08 11:43:46;;;;;;;7.85;3.03;;;20.20;93.00;;;;;;5052694;28;20166;-47
2022/05/08 11:46:16;;;;;;;6.97;2.65;;;20.20;92.30;;;;;;5052626;28;20202;-48
2022/05/08 11:48:43;;;;;;;7.70;2.42;;;20.20;92.70;;;;;;5052499;28;20167;-47
2022/05/08 11:51:10;;;;;;;11.38;2.78;;;20.20;92.60;;;;;;5052595;28;20185;-47
2022/05/08 11:53:39;;;;;;;6.65;2.53;;;20.20;93.70;;;;;;5052742;28;20162;-46
2022/05/08 11:56:24;;;;;;;5.68;2.67;;;20.30;92.50;;;;;;5053073;28;20182;-49
2022/05/08 11:58:50;;;;;;;7.60;2.53;;;20.20;93.60;;;;;;5052443;28;20718;-50
2022/05/08 12:01:25;;;;;;;6.40;2.67;;;20.10;93.10;;;;;;5052387;28;20177;-48
2022/05/08 12:03:52;;;;;;;8.32;2.45;;;20.20;92.70;;;;;;5052228;28;20210;-49
2022/05/08 12:06:18;;;;;;;5.65;2.35;;;20.30;92.50;;;;;;5052585;28;20214;-49
2022/05/08 12:08:43;;;;;;;10.55;3.03;;;20.10;93.10;;;;;;5052307;28;20166;-49
2022/05/08 12:11:27;;;;;;;4.15;2.42;;;20.30;93.50;;;;;;5052289;28;20221;-48
2022/05/08 12:14:10;;;;;;;5.70;2.17;;;20.00;92.40;;;;;;5052463;28;20167;-48
2022/05/08 12:16:35;;;;;;;6.53;2.17;;;20.30;93.80;;;;;;5052536;28;20159;-49
2022/05/08 12:19:15;;;;;;;9.70;2.22;;;20.20;93.10;;;;;;5052126;28;20181;-50
2022/05/08 12:21:45;;;;;;;5.20;2.13;;;20.30;92.60;;;;;;5052092;28;20188;-47
2022/05/08 12:24:12;;;;;;;8.48;2.00;;;20.00;90.90;;;;;;5052300;28;20170;-48
2022/05/08 12:26:38;;;;;;;4.55;2.05;;;19.90;90.50;;;;;;5051816;28;20197;-47
2022/05/08 12:29:18;;;;;;;7.57;2.72;;;19.90;91.00;;;;;;5052288;28;20163;-48
2022/05/08 12:31:44;;;;;;;7.68;2.78;;;20.30;92.10;;;;;;5051947;28;20170;-47
2022/05/08 12:34:11;;;;;;;6.60;2.78;;;20.20;92.00;;;;;;5051879;28;20175;-49
2022/05/08 12:36:39;;;;;;;5.40;2.35;;;20.20;92.50;;;;;;5052421;28;20171;-49
2022/05/08 12:39:05;;;;;;;8.35;2.45;;;20.70;92.90;;;;;;5052170;28;20228;-48
2022/05/08 12:41:33;;;;;;;7.38;2.33;;;20.60;92.00;;;;;;5051941;28;20167;-47
2022/05/08 12:43:59;;;;;;;6.72;2.90;;;20.80;91.20;;;;;;5051792;28;20509;-49
2022/05/08 12:46:24;;;;;;;11.15;3.65;;;20.70;91.60;;;;;;5051673;28;20672;-49
2022/05/08 12:48:50;;;;;;;6.13;2.45;;;21.10;92.10;;;;;;5051799;28;20353;-48
2022/05/08 12:51:15;;;;;;;8.57;2.75;;;21.00;92.10;;;;;;5054838;28;20658;-49
2022/05/08 12:53:41;;;;;;;5.50;2.08;;;20.80;91.50;;;;;;5056209;28;20198;-48
2022/05/08 12:56:08;;;;;;;7.93;2.97;;;20.90;92.30;;;;;;5056192;28;20524;-48
2022/05/08 13:01:17;;;;;;;10.48;2.65;;;20.60;92.00;;;;;;5055806;28;20543;-49
2022/05/08 13:03:43;;;;;;;11.85;3.00;;;20.50;92.50;;;;;;5055762;28;20218;-49
2022/05/08 13:06:08;;;;;;;10.98;3.20;;;20.90;92.60;;;;;;5055623;28;20205;-48
2022/05/08 13:08:34;;;;;;;5.55;2.63;;;21.00;92.60;;;;;;5055923;28;20311;-49
2022/05/08 13:11:02;;;;;;;4.90;2.65;;;21.20;93.40;;;;;;5055798;28;20170;-50